Погода Кармуна 2 недели

Рио-де-Жанейро, Бразилия

19 июля-01 августа
  • 19июля
    Сегодня
    +11°
    +26°
    Небольшая облачность
    ВремяПогодаТемператураВлажностьДавлениеВетер, м/сВероятность осадков
    00:00Ясно и безоблачно+15°C90 %731 мм1.5 м/с4 %
    03:00Ясно и безоблачно+14°C91 %731 мм1.1 м/с3 %
    06:00Ясно и безоблачно+13°C92 %732 мм0.9 м/с4 %
    09:00Ясно и безоблачно+19°C73 %734 мм0.9 м/с2 %
    12:00Ясно и безоблачно+24°C56 %733 мм1.0 м/с7 %
    15:00Небольшая облачность+25°C47 %732 мм1.6 м/с2 %
    18:00Облачно с прояснениями+20°C62 %732 мм2.4 м/с5 %
    21:00Ясно и безоблачно+18°C80 %733 мм0.8 м/с5 %
  • 20июля
    Суббота
    +11°
    +25°
    Небольшая облачность
    ВремяПогодаТемператураВлажностьДавлениеВетер, м/сВероятность осадков
    00:00Ясно и безоблачно+13°C92 %732 мм0.5 м/с5 %
    03:00Ясно и безоблачно+14°C89 %732 мм1.1 м/с5 %
    06:00Ясно и безоблачно+12°C92 %732 мм1.0 м/с5 %
    09:00Ясно и безоблачно+18°C75 %733 мм0.8 м/с5 %
    12:00Небольшая облачность+23°C57 %733 мм1.4 м/с3 %
    15:00Небольшая облачность+25°C49 %731 мм1.8 м/с5 %
    18:00Ясно и безоблачно+20°C61 %731 мм0.8 м/с5 %
    21:00Ясно и безоблачно+16°C81 %731 мм1.1 м/с5 %
  • 21июля
    Воскресенье
    +13°
    +25°
    Ясно и безоблачно
    ВремяПогодаТемператураВлажностьДавлениеВетер, м/сВероятность осадков
    00:00Ясно и безоблачно+13°C90 %732 мм0.7 м/с5 %
    03:00Ясно и безоблачно+12°C91 %731 мм0.9 м/с5 %
    06:00Ясно и безоблачно+11°C92 %731 мм0.9 м/с5 %
    09:00Ясно и безоблачно+18°C69 %733 мм0.5 м/с5 %
    12:00Ясно и безоблачно+24°C54 %732 мм2.0 м/с4 %
    15:00Ясно и безоблачно+25°C48 %731 мм1.8 м/с5 %
    18:00Ясно и безоблачно+20°C58 %731 мм0.5 м/с4 %
    21:00Ясно и безоблачно+15°C84 %731 мм1.4 м/с5 %
  • 22июля
    Понедельник
    +12°
    +27°
    Ясно и безоблачно
    ВремяПогодаТемператураВлажностьДавлениеВетер, м/сВероятность осадков
    00:00Ясно и безоблачно+14°C87 %732 мм0.9 м/с5 %
    03:00Небольшая облачность+14°C92 %731 мм1.1 м/с5 %
    06:00Пасмурно, сплошная облачность+15°C90 %732 мм0.5 м/с4 %
    09:00Пасмурно, сплошная облачность+19°C84 %733 мм0.3 м/с7 %
    12:00Практически безоблачно+24°C62 %733 мм1.3 м/с2 %
    15:00Ясно и безоблачно+26°C52 %731 мм0.7 м/с5 %
    18:00Ясно и безоблачно+21°C63 %731 мм0.8 м/с5 %
    21:00Ясно и безоблачно+17°C85 %732 мм1.2 м/с5 %
  • 23июля
    Вторник
    +11°
    +27°
    Ясно и безоблачно
    ВремяПогодаТемператураВлажностьДавлениеВетер, м/сВероятность осадков
    00:00Ясно и безоблачно+15°C88 %732 мм1.0 м/с5 %
    03:00Ясно и безоблачно+14°C91 %731 мм1.0 м/с5 %
    06:00Ясно и безоблачно+13°C94 %732 мм1.1 м/с5 %
    09:00Ясно и безоблачно+20°C70 %734 мм0.7 м/с9 %
    12:00Ясно и безоблачно+26°C52 %734 мм1.8 м/с5 %
    15:00Ясно и безоблачно+27°C47 %732 мм2.0 м/с4 %
    18:00Ясно и безоблачно+21°C58 %732 мм1.2 м/с5 %
    21:00Ясно и безоблачно+17°C82 %733 мм1.9 м/с5 %
Мы используем cookies
Соглашаюсь